sensor_id;sensor_type;location;lat;lon;timestamp;P1;P2;P0
69350;PMS7003;57106;51.446;-2.606;2023-04-24T00:00:23;15;13;
69350;PMS7003;57106;51.446;-2.606;2023-04-24T00:02:48;15;15;
69350;PMS7003;57106;51.446;-2.606;2023-04-24T00:05:13;15;13;
69350;PMS7003;57106;51.446;-2.606;2023-04-24T00:07:38;14;14;
69350;PMS7003;57106;51.446;-2.606;2023-04-24T00:10:04;14;13;
69350;PMS7003;57106;51.446;-2.606;2023-04-24T00:12:29;14;13;
69350;PMS7003;57106;51.446;-2.606;2023-04-24T00:14:55;13;12;
69350;PMS7003;57106;51.446;-2.606;2023-04-24T00:17:19;14;13;
69350;PMS7003;57106;51.446;-2.606;2023-04-24T00:19:45;18;15;
69350;PMS7003;57106;51.446;-2.606;2023-04-24T00:24:37;13;12;
69350;PMS7003;57106;51.446;-2.606;2023-04-24T00:27:02;20;15;
69350;PMS7003;57106;51.446;-2.606;2023-04-24T00:29:27;17;17;
69350;PMS7003;57106;51.446;-2.606;2023-04-24T00:31:54;15;14;
69350;PMS7003;57106;51.446;-2.606;2023-04-24T00:36:44;11;11;
69350;PMS7003;57106;51.446;-2.606;2023-04-24T00:39:09;16;16;
69350;PMS7003;57106;51.446;-2.606;2023-04-24T00:41:35;10;10;
69350;PMS7003;57106;51.446;-2.606;2023-04-24T00:44:00;13;12;
69350;PMS7003;57106;51.446;-2.606;2023-04-24T00:46:27;10;10;
69350;PMS7003;57106;51.446;-2.606;2023-04-24T00:48:51;14;12;
69350;PMS7003;57106;51.446;-2.606;2023-04-24T00:51:17;11;10;
69350;PMS7003;57106;51.446;-2.606;2023-04-24T00:53:42;9;9;
69350;PMS7003;57106;51.446;-2.606;2023-04-24T00:56:07;13;13;
69350;PMS7003;57106;51.446;-2.606;2023-04-24T00:58:32;8;8;
69350;PMS7003;57106;51.446;-2.606;2023-04-24T01:00:58;9;9;
69350;PMS7003;57106;51.446;-2.606;2023-04-24T01:03:26;12;12;
69350;PMS7003;57106;51.446;-2.606;2023-04-24T01:05:50;12;11;
69350;PMS7003;57106;51.446;-2.606;2023-04-24T01:08:15;8;8;
69350;PMS7003;57106;51.446;-2.606;2023-04-24T01:10:41;8;8;
69350;PMS7003;57106;51.446;-2.606;2023-04-24T01:13:07;8;7;
69350;PMS7003;57106;51.446;-2.606;2023-04-24T01:15:32;7;6;
69350;PMS7003;57106;51.446;-2.606;2023-04-24T01:17:58;7;7;
69350;PMS7003;57106;51.446;-2.606;2023-04-24T01:20:24;8;8;
69350;PMS7003;57106;51.446;-2.606;2023-04-24T01:22:49;8;8;
69350;PMS7003;57106;51.446;-2.606;2023-04-24T01:25:16;9;9;
69350;PMS7003;57106;51.446;-2.606;2023-04-24T01:27:40;7;7;
69350;PMS7003;57106;51.446;-2.606;2023-04-24T01:30:06;7;7;
69350;PMS7003;57106;51.446;-2.606;2023-04-24T01:32:31;8;8;
69350;PMS7003;57106;51.446;-2.606;2023-04-24T01:34:57;9;9;
69350;PMS7003;57106;51.446;-2.606;2023-04-24T01:37:23;8;8;
69350;PMS7003;57106;51.446;-2.606;2023-04-24T01:39:48;9;8;
69350;PMS7003;57106;51.446;-2.606;2023-04-24T01:42:14;15;9;
69350;PMS7003;57106;51.446;-2.606;2023-04-24T01:44:39;12;10;
69350;PMS7003;57106;51.446;-2.606;2023-04-24T01:47:05;14;13;
69350;PMS7003;57106;51.446;-2.606;2023-04-24T01:49:30;16;13;
69350;PMS7003;57106;51.446;-2.606;2023-04-24T01:51:55;16;14;
69350;PMS7003;57106;51.446;-2.606;2023-04-24T01:54:22;17;15;
69350;PMS7003;57106;51.446;-2.606;2023-04-24T01:56:47;19;18;
69350;PMS7003;57106;51.446;-2.606;2023-04-24T01:59:14;17;15;
69350;PMS7003;57106;51.446;-2.606;2023-04-24T02:01:38;16;12;
69350;PMS7003;57106;51.446;-2.606;2023-04-24T02:04:04;16;14;
69350;PMS7003;57106;51.446;-2.606;2023-04-24T02:06:29;12;12;
69350;PMS7003;57106;51.446;-2.606;2023-04-24T02:08:55;16;13;
69350;PMS7003;57106;51.446;-2.606;2023-04-24T02:11:20;16;14;
69350;PMS7003;57106;51.446;-2.606;2023-04-24T02:13:46;12;12;
69350;PMS7003;57106;51.446;-2.606;2023-04-24T02:16:11;10;10;
69350;PMS7003;57106;51.446;-2.606;2023-04-24T02:18:46;13;12;
69350;PMS7003;57106;51.446;-2.606;2023-04-24T02:21:08;15;13;
69350;PMS7003;57106;51.446;-2.606;2023-04-24T02:23:28;16;12;
69350;PMS7003;57106;51.446;-2.606;2023-04-24T02:25:53;18;14;
69350;PMS7003;57106;51.446;-2.606;2023-04-24T02:28:18;13;13;
69350;PMS7003;57106;51.446;-2.606;2023-04-24T02:30:44;13;11;
69350;PMS7003;57106;51.446;-2.606;2023-04-24T02:33:09;13;10;
69350;PMS7003;57106;51.446;-2.606;2023-04-24T02:35:34;16;12;
69350;PMS7003;57106;51.446;-2.606;2023-04-24T02:38:00;14;13;
69350;PMS7003;57106;51.446;-2.606;2023-04-24T02:40:25;10;9;
69350;PMS7003;57106;51.446;-2.606;2023-04-24T02:42:51;10;10;
69350;PMS7003;57106;51.446;-2.606;2023-04-24T02:45:16;13;12;
69350;PMS7003;57106;51.446;-2.606;2023-04-24T02:47:42;17;12;
69350;PMS7003;57106;51.446;-2.606;2023-04-24T02:50:08;11;10;
69350;PMS7003;57106;51.446;-2.606;2023-04-24T02:52:32;11;10;
69350;PMS7003;57106;51.446;-2.606;2023-04-24T02:54:58;14;14;
69350;PMS7003;57106;51.446;-2.606;2023-04-24T02:57:24;14;12;
69350;PMS7003;57106;51.446;-2.606;2023-04-24T02:59:50;14;13;
69350;PMS7003;57106;51.446;-2.606;2023-04-24T03:02:15;11;11;
69350;PMS7003;57106;51.446;-2.606;2023-04-24T03:04:41;13;12;
69350;PMS7003;57106;51.446;-2.606;2023-04-24T03:07:06;13;10;
69350;PMS7003;57106;51.446;-2.606;2023-04-24T03:09:31;15;14;
69350;PMS7003;57106;51.446;-2.606;2023-04-24T03:11:57;13;13;
69350;PMS7003;57106;51.446;-2.606;2023-04-24T03:14:23;13;12;
69350;PMS7003;57106;51.446;-2.606;2023-04-24T03:16:48;15;15;
69350;PMS7003;57106;51.446;-2.606;2023-04-24T03:19:14;14;13;
69350;PMS7003;57106;51.446;-2.606;2023-04-24T03:21:39;16;14;
69350;PMS7003;57106;51.446;-2.606;2023-04-24T03:24:05;16;15;
69350;PMS7003;57106;51.446;-2.606;2023-04-24T03:26:30;12;12;
69350;PMS7003;57106;51.446;-2.606;2023-04-24T03:28:57;11;10;
69350;PMS7003;57106;51.446;-2.606;2023-04-24T03:31:21;13;13;
69350;PMS7003;57106;51.446;-2.606;2023-04-24T03:33:47;14;11;
69350;PMS7003;57106;51.446;-2.606;2023-04-24T03:36:12;10;10;
69350;PMS7003;57106;51.446;-2.606;2023-04-24T03:38:37;12;12;
69350;PMS7003;57106;51.446;-2.606;2023-04-24T03:41:02;13;13;
69350;PMS7003;57106;51.446;-2.606;2023-04-24T03:43:30;15;12;
69350;PMS7003;57106;51.446;-2.606;2023-04-24T03:45:54;13;12;
69350;PMS7003;57106;51.446;-2.606;2023-04-24T03:48:19;12;12;
69350;PMS7003;57106;51.446;-2.606;2023-04-24T03:50:45;14;13;
69350;PMS7003;57106;51.446;-2.606;2023-04-24T03:53:14;11;11;
69350;PMS7003;57106;51.446;-2.606;2023-04-24T03:58:02;13;13;
69350;PMS7003;57106;51.446;-2.606;2023-04-24T04:00:27;15;15;
69350;PMS7003;57106;51.446;-2.606;2023-04-24T04:02:54;12;11;
69350;PMS7003;57106;51.446;-2.606;2023-04-24T04:05:19;10;8;
69350;PMS7003;57106;51.446;-2.606;2023-04-24T04:07:44;15;11;
69350;PMS7003;57106;51.446;-2.606;2023-04-24T04:10:10;11;11;
69350;PMS7003;57106;51.446;-2.606;2023-04-24T04:12:36;13;12;
69350;PMS7003;57106;51.446;-2.606;2023-04-24T04:15:01;13;12;
69350;PMS7003;57106;51.446;-2.606;2023-04-24T04:17:26;11;11;
69350;PMS7003;57106;51.446;-2.606;2023-04-24T04:19:52;11;11;
69350;PMS7003;57106;51.446;-2.606;2023-04-24T04:22:18;10;10;
69350;PMS7003;57106;51.446;-2.606;2023-04-24T04:24:43;11;10;
69350;PMS7003;57106;51.446;-2.606;2023-04-24T04:27:09;11;10;
69350;PMS7003;57106;51.446;-2.606;2023-04-24T04:29:34;13;10;
69350;PMS7003;57106;51.446;-2.606;2023-04-24T04:31:59;9;9;
69350;PMS7003;57106;51.446;-2.606;2023-04-24T04:34:25;10;10;
69350;PMS7003;57106;51.446;-2.606;2023-04-24T04:36:51;10;10;
69350;PMS7003;57106;51.446;-2.606;2023-04-24T04:41:43;11;10;
69350;PMS7003;57106;51.446;-2.606;2023-04-24T04:44:08;11;10;
69350;PMS7003;57106;51.446;-2.606;2023-04-24T04:46:34;10;9;
69350;PMS7003;57106;51.446;-2.606;2023-04-24T04:48:59;12;11;
69350;PMS7003;57106;51.446;-2.606;2023-04-24T04:51:26;11;10;
69350;PMS7003;57106;51.446;-2.606;2023-04-24T04:53:51;12;12;
69350;PMS7003;57106;51.446;-2.606;2023-04-24T04:56:16;14;13;
69350;PMS7003;57106;51.446;-2.606;2023-04-24T04:58:41;16;16;
69350;PMS7003;57106;51.446;-2.606;2023-04-24T05:01:07;13;13;
69350;PMS7003;57106;51.446;-2.606;2023-04-24T05:03:32;18;16;
69350;PMS7003;57106;51.446;-2.606;2023-04-24T05:06:00;18;17;
69350;PMS7003;57106;51.446;-2.606;2023-04-24T05:08:31;15;15;
69350;PMS7003;57106;51.446;-2.606;2023-04-24T05:10:52;16;16;
69350;PMS7003;57106;51.446;-2.606;2023-04-24T05:13:17;13;12;
69350;PMS7003;57106;51.446;-2.606;2023-04-24T05:15:42;17;13;
69350;PMS7003;57106;51.446;-2.606;2023-04-24T05:18:09;16;16;
69350;PMS7003;57106;51.446;-2.606;2023-04-24T05:22:59;16;16;
69350;PMS7003;57106;51.446;-2.606;2023-04-24T05:25:25;20;17;
69350;PMS7003;57106;51.446;-2.606;2023-04-24T05:27:51;16;14;
69350;PMS7003;57106;51.446;-2.606;2023-04-24T05:30:17;30;26;
69350;PMS7003;57106;51.446;-2.606;2023-04-24T05:32:41;20;17;
69350;PMS7003;57106;51.446;-2.606;2023-04-24T05:35:08;20;17;
69350;PMS7003;57106;51.446;-2.606;2023-04-24T05:37:32;14;14;
69350;PMS7003;57106;51.446;-2.606;2023-04-24T05:39:58;18;14;
69350;PMS7003;57106;51.446;-2.606;2023-04-24T05:42:23;17;15;
69350;PMS7003;57106;51.446;-2.606;2023-04-24T05:44:51;16;12;
69350;PMS7003;57106;51.446;-2.606;2023-04-24T05:47:14;16;13;
69350;PMS7003;57106;51.446;-2.606;2023-04-24T05:49:40;17;14;
69350;PMS7003;57106;51.446;-2.606;2023-04-24T05:54:32;16;15;
69350;PMS7003;57106;51.446;-2.606;2023-04-24T05:56:58;16;16;
69350;PMS7003;57106;51.446;-2.606;2023-04-24T05:59:23;17;16;
69350;PMS7003;57106;51.446;-2.606;2023-04-24T06:01:48;14;13;
69350;PMS7003;57106;51.446;-2.606;2023-04-24T06:04:14;13;13;
69350;PMS7003;57106;51.446;-2.606;2023-04-24T06:09:04;17;16;
69350;PMS7003;57106;51.446;-2.606;2023-04-24T06:11:30;16;15;
69350;PMS7003;57106;51.446;-2.606;2023-04-24T06:13:56;13;12;
69350;PMS7003;57106;51.446;-2.606;2023-04-24T06:16:21;14;14;
69350;PMS7003;57106;51.446;-2.606;2023-04-24T06:18:46;13;13;
69350;PMS7003;57106;51.446;-2.606;2023-04-24T06:21:12;14;13;
69350;PMS7003;57106;51.446;-2.606;2023-04-24T06:26:02;15;13;
69350;PMS7003;57106;51.446;-2.606;2023-04-24T06:28:30;13;11;
69350;PMS7003;57106;51.446;-2.606;2023-04-24T06:30:58;13;12;
69350;PMS7003;57106;51.446;-2.606;2023-04-24T06:33:19;13;12;
69350;PMS7003;57106;51.446;-2.606;2023-04-24T06:35:44;16;12;
69350;PMS7003;57106;51.446;-2.606;2023-04-24T06:38:09;16;16;
69350;PMS7003;57106;51.446;-2.606;2023-04-24T06:40:35;14;14;
69350;PMS7003;57106;51.446;-2.606;2023-04-24T06:43:00;14;13;
69350;PMS7003;57106;51.446;-2.606;2023-04-24T06:45:27;15;12;
69350;PMS7003;57106;51.446;-2.606;2023-04-24T06:47:51;16;14;
69350;PMS7003;57106;51.446;-2.606;2023-04-24T06:50:17;17;15;
69350;PMS7003;57106;51.446;-2.606;2023-04-24T06:52:42;16;15;
69350;PMS7003;57106;51.446;-2.606;2023-04-24T06:55:08;18;16;
69350;PMS7003;57106;51.446;-2.606;2023-04-24T06:57:33;16;15;
69350;PMS7003;57106;51.446;-2.606;2023-04-24T06:59:59;19;18;
69350;PMS7003;57106;51.446;-2.606;2023-04-24T07:02:25;21;18;
69350;PMS7003;57106;51.446;-2.606;2023-04-24T07:04:50;14;14;
69350;PMS7003;57106;51.446;-2.606;2023-04-24T07:07:16;13;13;
69350;PMS7003;57106;51.446;-2.606;2023-04-24T07:09:40;13;13;
69350;PMS7003;57106;51.446;-2.606;2023-04-24T07:12:06;13;13;
69350;PMS7003;57106;51.446;-2.606;2023-04-24T07:14:31;16;15;
69350;PMS7003;57106;51.446;-2.606;2023-04-24T07:16:57;17;15;
69350;PMS7003;57106;51.446;-2.606;2023-04-24T07:19:22;15;14;
69350;PMS7003;57106;51.446;-2.606;2023-04-24T07:21:47;16;14;
69350;PMS7003;57106;51.446;-2.606;2023-04-24T07:24:13;16;14;
69350;PMS7003;57106;51.446;-2.606;2023-04-24T07:26:38;21;18;
69350;PMS7003;57106;51.446;-2.606;2023-04-24T07:29:04;17;17;
69350;PMS7003;57106;51.446;-2.606;2023-04-24T07:31:29;19;18;
69350;PMS7003;57106;51.446;-2.606;2023-04-24T07:33:54;15;15;
69350;PMS7003;57106;51.446;-2.606;2023-04-24T07:36:21;17;17;
69350;PMS7003;57106;51.446;-2.606;2023-04-24T07:38:46;22;18;
69350;PMS7003;57106;51.446;-2.606;2023-04-24T07:41:11;16;13;
69350;PMS7003;57106;51.446;-2.606;2023-04-24T07:43:37;21;17;
69350;PMS7003;57106;51.446;-2.606;2023-04-24T07:46:03;15;14;
69350;PMS7003;57106;51.446;-2.606;2023-04-24T07:48:28;19;16;
69350;PMS7003;57106;51.446;-2.606;2023-04-24T07:50:53;20;17;
69350;PMS7003;57106;51.446;-2.606;2023-04-24T07:53:19;16;16;
69350;PMS7003;57106;51.446;-2.606;2023-04-24T07:55:46;17;16;
69350;PMS7003;57106;51.446;-2.606;2023-04-24T07:58:10;15;15;
69350;PMS7003;57106;51.446;-2.606;2023-04-24T08:00:36;20;17;
69350;PMS7003;57106;51.446;-2.606;2023-04-24T08:05:28;13;12;
69350;PMS7003;57106;51.446;-2.606;2023-04-24T08:07:54;23;22;
69350;PMS7003;57106;51.446;-2.606;2023-04-24T08:10:20;18;18;
69350;PMS7003;57106;51.446;-2.606;2023-04-24T08:12:44;16;16;
69350;PMS7003;57106;51.446;-2.606;2023-04-24T08:15:10;16;15;
69350;PMS7003;57106;51.446;-2.606;2023-04-24T08:17:36;11;11;
69350;PMS7003;57106;51.446;-2.606;2023-04-24T08:20:01;14;13;
69350;PMS7003;57106;51.446;-2.606;2023-04-24T08:22:26;10;9;
69350;PMS7003;57106;51.446;-2.606;2023-04-24T08:24:51;12;12;
69350;PMS7003;57106;51.446;-2.606;2023-04-24T08:27:17;14;12;
69350;PMS7003;57106;51.446;-2.606;2023-04-24T08:29:43;13;11;
69350;PMS7003;57106;51.446;-2.606;2023-04-24T08:32:08;13;13;
69350;PMS7003;57106;51.446;-2.606;2023-04-24T08:34:35;15;15;
69350;PMS7003;57106;51.446;-2.606;2023-04-24T08:37:00;12;11;
69350;PMS7003;57106;51.446;-2.606;2023-04-24T08:39:25;14;13;
69350;PMS7003;57106;51.446;-2.606;2023-04-24T09:13:30;13;13;
69350;PMS7003;57106;51.446;-2.606;2023-04-24T09:15:49;13;13;
69350;PMS7003;57106;51.446;-2.606;2023-04-24T09:18:14;14;14;
69350;PMS7003;57106;51.446;-2.606;2023-04-24T09:23:06;14;11;
69350;PMS7003;57106;51.446;-2.606;2023-04-24T09:25:33;17;16;
69350;PMS7003;57106;51.446;-2.606;2023-04-24T09:28:00;14;13;
69350;PMS7003;57106;51.446;-2.606;2023-04-24T09:30:23;14;13;
69350;PMS7003;57106;51.446;-2.606;2023-04-24T09:32:48;13;12;
69350;PMS7003;57106;51.446;-2.606;2023-04-24T09:37:40;17;15;
69350;PMS7003;57106;51.446;-2.606;2023-04-24T09:40:09;14;14;
69350;PMS7003;57106;51.446;-2.606;2023-04-24T09:42:30;17;15;
69350;PMS7003;57106;51.446;-2.606;2023-04-24T09:52:12;19;16;
69350;PMS7003;57106;51.446;-2.606;2023-04-24T09:54:39;13;12;
69350;PMS7003;57106;51.446;-2.606;2023-04-24T09:57:03;14;12;
69350;PMS7003;57106;51.446;-2.606;2023-04-24T09:59:28;16;13;
69350;PMS7003;57106;51.446;-2.606;2023-04-24T10:01:54;17;13;
69350;PMS7003;57106;51.446;-2.606;2023-04-24T10:14:01;14;13;
69350;PMS7003;57106;51.446;-2.606;2023-04-24T10:16:27;14;14;
69350;PMS7003;57106;51.446;-2.606;2023-04-24T10:18:53;16;16;
69350;PMS7003;57106;51.446;-2.606;2023-04-24T10:21:19;16;14;
69350;PMS7003;57106;51.446;-2.606;2023-04-24T11:17:08;10;10;
69350;PMS7003;57106;51.446;-2.606;2023-04-24T11:19:33;11;11;
69350;PMS7003;57106;51.446;-2.606;2023-04-24T11:29:17;13;11;
69350;PMS7003;57106;51.446;-2.606;2023-04-24T11:31:41;13;11;
69350;PMS7003;57106;51.446;-2.606;2023-04-24T11:34:08;10;10;
69350;PMS7003;57106;51.446;-2.606;2023-04-24T11:36:31;11;11;
69350;PMS7003;57106;51.446;-2.606;2023-04-24T12:00:55;5;5;
69350;PMS7003;57106;51.446;-2.606;2023-04-24T12:03:13;6;6;
69350;PMS7003;57106;51.446;-2.606;2023-04-24T12:08:06;5;5;
69350;PMS7003;57106;51.446;-2.606;2023-04-24T12:15:21;7;7;
69350;PMS7003;57106;51.446;-2.606;2023-04-24T12:17:46;6;6;
69350;PMS7003;57106;51.446;-2.606;2023-04-24T12:37:11;7;6;
69350;PMS7003;57106;51.446;-2.606;2023-04-24T12:39:39;8;8;
69350;PMS7003;57106;51.446;-2.606;2023-04-24T12:42:03;8;7;
69350;PMS7003;57106;51.446;-2.606;2023-04-24T12:44:29;8;7;
69350;PMS7003;57106;51.446;-2.606;2023-04-24T12:46:53;7;7;
69350;PMS7003;57106;51.446;-2.606;2023-04-24T12:49:18;8;8;
69350;PMS7003;57106;51.446;-2.606;2023-04-24T12:51:44;6;6;
69350;PMS7003;57106;51.446;-2.606;2023-04-24T12:54:10;10;7;
69350;PMS7003;57106;51.446;-2.606;2023-04-24T12:56:35;11;8;
69350;PMS7003;57106;51.446;-2.606;2023-04-24T12:59:01;8;7;
69350;PMS7003;57106;51.446;-2.606;2023-04-24T13:01:27;7;7;
69350;PMS7003;57106;51.446;-2.606;2023-04-24T13:03:52;9;8;
69350;PMS7003;57106;51.446;-2.606;2023-04-24T13:06:17;7;7;
69350;PMS7003;57106;51.446;-2.606;2023-04-24T13:08:43;10;8;
69350;PMS7003;57106;51.446;-2.606;2023-04-24T13:11:09;9;9;
69350;PMS7003;57106;51.446;-2.606;2023-04-24T13:13:34;11;11;
69350;PMS7003;57106;51.446;-2.606;2023-04-24T13:16:00;13;11;
69350;PMS7003;57106;51.446;-2.606;2023-04-24T13:18:25;11;10;
69350;PMS7003;57106;51.446;-2.606;2023-04-24T13:20:51;13;12;
69350;PMS7003;57106;51.446;-2.606;2023-04-24T13:23:17;10;9;
69350;PMS7003;57106;51.446;-2.606;2023-04-24T13:25:42;10;9;
69350;PMS7003;57106;51.446;-2.606;2023-04-24T13:28:08;9;9;
69350;PMS7003;57106;51.446;-2.606;2023-04-24T13:30:34;11;10;
69350;PMS7003;57106;51.446;-2.606;2023-04-24T13:32:59;8;7;
69350;PMS7003;57106;51.446;-2.606;2023-04-24T13:35:25;14;10;
69350;PMS7003;57106;51.446;-2.606;2023-04-24T13:37:50;12;10;
69350;PMS7003;57106;51.446;-2.606;2023-04-24T13:40:16;11;10;
69350;PMS7003;57106;51.446;-2.606;2023-04-24T13:42:41;9;9;
69350;PMS7003;57106;51.446;-2.606;2023-04-24T13:45:07;8;7;
69350;PMS7003;57106;51.446;-2.606;2023-04-24T13:47:33;8;7;
69350;PMS7003;57106;51.446;-2.606;2023-04-24T13:49:58;10;9;
69350;PMS7003;57106;51.446;-2.606;2023-04-24T13:52:23;9;8;
69350;PMS7003;57106;51.446;-2.606;2023-04-24T13:54:49;10;9;
69350;PMS7003;57106;51.446;-2.606;2023-04-24T13:57:14;10;9;
69350;PMS7003;57106;51.446;-2.606;2023-04-24T13:59:40;9;9;
69350;PMS7003;57106;51.446;-2.606;2023-04-24T14:02:05;8;8;
69350;PMS7003;57106;51.446;-2.606;2023-04-24T14:04:31;9;8;
69350;PMS7003;57106;51.446;-2.606;2023-04-24T14:06:56;8;8;
69350;PMS7003;57106;51.446;-2.606;2023-04-24T14:09:22;7;7;
69350;PMS7003;57106;51.446;-2.606;2023-04-24T14:11:48;8;8;
69350;PMS7003;57106;51.446;-2.606;2023-04-24T14:14:13;9;8;
69350;PMS7003;57106;51.446;-2.606;2023-04-24T14:16:39;7;7;
69350;PMS7003;57106;51.446;-2.606;2023-04-24T14:19:05;10;9;
69350;PMS7003;57106;51.446;-2.606;2023-04-24T14:21:30;8;7;
69350;PMS7003;57106;51.446;-2.606;2023-04-24T14:23:56;7;7;
69350;PMS7003;57106;51.446;-2.606;2023-04-24T14:26:22;6;6;
69350;PMS7003;57106;51.446;-2.606;2023-04-24T14:28:47;7;7;
69350;PMS7003;57106;51.446;-2.606;2023-04-24T14:31:13;8;7;
69350;PMS7003;57106;51.446;-2.606;2023-04-24T14:33:38;8;7;
69350;PMS7003;57106;51.446;-2.606;2023-04-24T14:36:04;8;5;
69350;PMS7003;57106;51.446;-2.606;2023-04-24T14:38:29;4;4;
69350;PMS7003;57106;51.446;-2.606;2023-04-24T14:40:55;6;6;
69350;PMS7003;57106;51.446;-2.606;2023-04-24T14:43:20;3;3;
69350;PMS7003;57106;51.446;-2.606;2023-04-24T14:45:46;8;6;
69350;PMS7003;57106;51.446;-2.606;2023-04-24T14:48:12;5;4;
69350;PMS7003;57106;51.446;-2.606;2023-04-24T14:50:38;6;6;
69350;PMS7003;57106;51.446;-2.606;2023-04-24T14:53:03;7;7;
69350;PMS7003;57106;51.446;-2.606;2023-04-24T14:55:28;6;5;
69350;PMS7003;57106;51.446;-2.606;2023-04-24T14:57:54;8;6;
69350;PMS7003;57106;51.446;-2.606;2023-04-24T15:00:20;7;6;
69350;PMS7003;57106;51.446;-2.606;2023-04-24T15:02:46;4;4;
69350;PMS7003;57106;51.446;-2.606;2023-04-24T15:05:11;4;4;
69350;PMS7003;57106;51.446;-2.606;2023-04-24T15:07:37;6;5;
69350;PMS7003;57106;51.446;-2.606;2023-04-24T15:10:02;4;4;
69350;PMS7003;57106;51.446;-2.606;2023-04-24T15:12:28;4;4;
69350;PMS7003;57106;51.446;-2.606;2023-04-24T15:14:54;3;3;
69350;PMS7003;57106;51.446;-2.606;2023-04-24T15:17:19;3;3;
69350;PMS7003;57106;51.446;-2.606;2023-04-24T15:19:45;6;3;
69350;PMS7003;57106;51.446;-2.606;2023-04-24T15:22:11;3;3;
69350;PMS7003;57106;51.446;-2.606;2023-04-24T15:24:36;4;3;
69350;PMS7003;57106;51.446;-2.606;2023-04-24T15:27:02;3;3;
69350;PMS7003;57106;51.446;-2.606;2023-04-24T15:29:28;3;3;
69350;PMS7003;57106;51.446;-2.606;2023-04-24T15:31:53;4;3;
69350;PMS7003;57106;51.446;-2.606;2023-04-24T15:34:19;5;4;
69350;PMS7003;57106;51.446;-2.606;2023-04-24T15:36:44;6;6;
69350;PMS7003;57106;51.446;-2.606;2023-04-24T15:39:11;5;4;
69350;PMS7003;57106;51.446;-2.606;2023-04-24T15:41:36;4;3;
69350;PMS7003;57106;51.446;-2.606;2023-04-24T15:44:01;6;4;
69350;PMS7003;57106;51.446;-2.606;2023-04-24T15:46:27;4;4;
69350;PMS7003;57106;51.446;-2.606;2023-04-24T15:48:53;3;3;
69350;PMS7003;57106;51.446;-2.606;2023-04-24T15:51:18;4;3;
69350;PMS7003;57106;51.446;-2.606;2023-04-24T15:53:44;4;4;
69350;PMS7003;57106;51.446;-2.606;2023-04-24T15:58:36;6;5;
69350;PMS7003;57106;51.446;-2.606;2023-04-24T16:01:01;5;3;
69350;PMS7003;57106;51.446;-2.606;2023-04-24T16:03:27;6;3;
69350;PMS7003;57106;51.446;-2.606;2023-04-24T16:05:53;3;3;
69350;PMS7003;57106;51.446;-2.606;2023-04-24T16:08:19;5;5;
69350;PMS7003;57106;51.446;-2.606;2023-04-24T16:15:35;3;3;
69350;PMS7003;57106;51.446;-2.606;2023-04-24T16:18:01;3;3;
69350;PMS7003;57106;51.446;-2.606;2023-04-24T16:20:26;6;4;
69350;PMS7003;57106;51.446;-2.606;2023-04-24T16:23:02;4;4;
69350;PMS7003;57106;51.446;-2.606;2023-04-24T16:25:17;3;3;
69350;PMS7003;57106;51.446;-2.606;2023-04-24T16:27:43;3;3;
69350;PMS7003;57106;51.446;-2.606;2023-04-24T16:30:09;3;3;
69350;PMS7003;57106;51.446;-2.606;2023-04-24T16:32:34;3;3;
69350;PMS7003;57106;51.446;-2.606;2023-04-24T16:35:00;3;3;
69350;PMS7003;57106;51.446;-2.606;2023-04-24T16:37:27;5;4;
69350;PMS7003;57106;51.446;-2.606;2023-04-24T16:39:51;4;3;
69350;PMS7003;57106;51.446;-2.606;2023-04-24T16:42:16;3;2;
69350;PMS7003;57106;51.446;-2.606;2023-04-24T16:44:43;5;3;
69350;PMS7003;57106;51.446;-2.606;2023-04-24T16:47:09;3;3;
69350;PMS7003;57106;51.446;-2.606;2023-04-24T16:49:35;4;4;
69350;PMS7003;57106;51.446;-2.606;2023-04-24T16:52:00;4;3;
69350;PMS7003;57106;51.446;-2.606;2023-04-24T16:54:25;6;3;
69350;PMS7003;57106;51.446;-2.606;2023-04-24T16:56:51;5;4;
69350;PMS7003;57106;51.446;-2.606;2023-04-24T16:59:16;5;4;
69350;PMS7003;57106;51.446;-2.606;2023-04-24T17:01:42;5;4;
69350;PMS7003;57106;51.446;-2.606;2023-04-24T17:04:08;5;5;
69350;PMS7003;57106;51.446;-2.606;2023-04-24T17:06:34;5;4;
69350;PMS7003;57106;51.446;-2.606;2023-04-24T17:08:59;5;5;
69350;PMS7003;57106;51.446;-2.606;2023-04-24T17:11:25;6;6;
69350;PMS7003;57106;51.446;-2.606;2023-04-24T17:13:50;6;5;
69350;PMS7003;57106;51.446;-2.606;2023-04-24T17:16:16;3;3;
69350;PMS7003;57106;51.446;-2.606;2023-04-24T17:18:41;6;4;
69350;PMS7003;57106;51.446;-2.606;2023-04-24T17:21:09;6;6;
69350;PMS7003;57106;51.446;-2.606;2023-04-24T17:23:36;4;4;
69350;PMS7003;57106;51.446;-2.606;2023-04-24T17:25:59;4;4;
69350;PMS7003;57106;51.446;-2.606;2023-04-24T17:28:26;6;4;
69350;PMS7003;57106;51.446;-2.606;2023-04-24T17:30:50;5;5;
69350;PMS7003;57106;51.446;-2.606;2023-04-24T17:33:15;7;4;
69350;PMS7003;57106;51.446;-2.606;2023-04-24T17:35:41;5;5;
69350;PMS7003;57106;51.446;-2.606;2023-04-24T17:38:06;7;5;
69350;PMS7003;57106;51.446;-2.606;2023-04-24T17:40:33;4;3;
69350;PMS7003;57106;51.446;-2.606;2023-04-24T17:42:58;3;3;
69350;PMS7003;57106;51.446;-2.606;2023-04-24T17:45:26;6;5;
69350;PMS7003;57106;51.446;-2.606;2023-04-24T17:47:53;8;8;
69350;PMS7003;57106;51.446;-2.606;2023-04-24T17:50:15;7;6;
69350;PMS7003;57106;51.446;-2.606;2023-04-24T17:52:41;4;4;
69350;PMS7003;57106;51.446;-2.606;2023-04-24T17:55:06;5;4;
69350;PMS7003;57106;51.446;-2.606;2023-04-24T17:57:32;6;5;
69350;PMS7003;57106;51.446;-2.606;2023-04-24T17:59:57;4;4;
69350;PMS7003;57106;51.446;-2.606;2023-04-24T18:02:23;5;5;
69350;PMS7003;57106;51.446;-2.606;2023-04-24T18:04:49;5;4;
69350;PMS7003;57106;51.446;-2.606;2023-04-24T18:07:14;7;5;
69350;PMS7003;57106;51.446;-2.606;2023-04-24T18:14:32;2;2;
69350;PMS7003;57106;51.446;-2.606;2023-04-24T18:33:56;4;4;
69350;PMS7003;57106;51.446;-2.606;2023-04-24T18:36:21;5;4;
69350;PMS7003;57106;51.446;-2.606;2023-04-24T18:38:47;4;4;
69350;PMS7003;57106;51.446;-2.606;2023-04-24T18:41:13;3;3;
69350;PMS7003;57106;51.446;-2.606;2023-04-24T18:43:39;6;6;
69350;PMS7003;57106;51.446;-2.606;2023-04-24T18:46:04;7;6;
69350;PMS7003;57106;51.446;-2.606;2023-04-24T18:48:29;6;6;
69350;PMS7003;57106;51.446;-2.606;2023-04-24T18:50:55;7;4;
69350;PMS7003;57106;51.446;-2.606;2023-04-24T18:53:21;5;4;
69350;PMS7003;57106;51.446;-2.606;2023-04-24T18:55:46;4;4;
69350;PMS7003;57106;51.446;-2.606;2023-04-24T18:58:12;6;5;
69350;PMS7003;57106;51.446;-2.606;2023-04-24T19:00:38;6;5;
69350;PMS7003;57106;51.446;-2.606;2023-04-24T19:03:03;7;5;
69350;PMS7003;57106;51.446;-2.606;2023-04-24T19:05:30;6;5;
69350;PMS7003;57106;51.446;-2.606;2023-04-24T19:07:55;6;6;
69350;PMS7003;57106;51.446;-2.606;2023-04-24T19:10:22;8;5;
69350;PMS7003;57106;51.446;-2.606;2023-04-24T19:12:46;6;6;
69350;PMS7003;57106;51.446;-2.606;2023-04-24T19:15:12;6;6;
69350;PMS7003;57106;51.446;-2.606;2023-04-24T19:17:37;7;6;
69350;PMS7003;57106;51.446;-2.606;2023-04-24T19:20:03;8;6;
69350;PMS7003;57106;51.446;-2.606;2023-04-24T19:22:29;6;6;
69350;PMS7003;57106;51.446;-2.606;2023-04-24T19:24:55;6;6;
69350;PMS7003;57106;51.446;-2.606;2023-04-24T19:27:20;7;7;
69350;PMS7003;57106;51.446;-2.606;2023-04-24T19:29:46;9;7;
69350;PMS7003;57106;51.446;-2.606;2023-04-24T19:32:11;8;8;
69350;PMS7003;57106;51.446;-2.606;2023-04-24T19:34:37;9;9;